Terminal Aerodrome Forecast
Issued by NWS Blacksburg, VA

Home | Current Version | Previous Version | Text Only | Print | Product List | Glossary On
Versions: 1 2 3 4 5 6 7 8 9 10 11 12 13 14 15 16 17 18 19 20 21 22 23 24 25 26 27 28 29 30 31 32
000
FTUS41 KRNK 302147 AAA
TAFROA
TAF AMD
KROA 302147Z 3022/0118 06007KT P6SM VCSH FEW012 OVC020
     FM010200 04004KT P6SM OVC007
     FM010600 04003KT 4SM BR OVC007
     FM011200 VRB03KT 5SM BR OVC015
     FM011500 18005KT P6SM SCT030=

USA.gov is the U.S. government's official web portal to all federal, state and local government web resources and services.